Time;durP1;ratioP1;P1;durP2;ratioP2;P2;SDS_P1;SDS_P2;PMS_P1;PMS_P2;Temp;Humidity;BMP_temperature;BMP_pressure;BME280_temperature;BME280_humidity;BME280_pressure;Samples;Min_cycle;Max_cycle;Signal;HPM_P1;HPM_P2
2022/03/15 00:01:12;;;;;;;12.93;8.25;;;5.40;53.90;;;;;;5050388;28;20186;-64
2022/03/15 00:03:39;;;;;;;11.05;7.38;;;5.30;53.60;;;;;;5051366;28;20279;-63
2022/03/15 00:06:06;;;;;;;15.38;8.85;;;5.30;54.30;;;;;;5051811;28;20198;-64
2022/03/15 00:08:33;;;;;;;10.63;8.48;;;5.30;54.30;;;;;;5056831;28;20182;-63
2022/03/15 00:11:04;;;;;;;11.07;7.68;;;5.30;54.10;;;;;;5071789;28;20256;-62
2022/03/15 00:13:32;;;;;;;11.80;7.20;;;5.40;54.50;;;;;;5067172;28;20190;-63
2022/03/15 00:16:01;;;;;;;8.98;7.13;;;5.30;54.50;;;;;;5051886;28;20201;-63
2022/03/15 00:18:30;;;;;;;9.98;6.80;;;5.30;54.60;;;;;;5055028;28;20186;-63
2022/03/15 00:20:57;;;;;;;8.73;6.50;;;5.30;54.30;;;;;;5071861;28;20240;-62
2022/03/15 00:23:25;;;;;;;13.35;6.10;;;5.20;53.80;;;;;;5070062;28;21156;-62
2022/03/15 00:25:52;;;;;;;10.25;6.47;;;5.20;54.20;;;;;;5068317;28;20197;-63
2022/03/15 00:28:19;;;;;;;9.85;6.85;;;5.20;54.90;;;;;;5074445;28;20186;-63
2022/03/15 00:30:46;;;;;;;8.52;6.82;;;5.20;55.00;;;;;;5055609;28;20187;-63
2022/03/15 00:33:15;;;;;;;10.27;6.72;;;5.20;54.90;;;;;;5055139;28;20272;-64
2022/03/15 00:35:42;;;;;;;10.90;7.93;;;5.30;54.70;;;;;;5035466;28;20201;-63
2022/03/15 00:38:10;;;;;;;10.57;6.85;;;5.20;54.30;;;;;;5035451;28;20202;-63
2022/03/15 00:40:39;;;;;;;9.70;6.75;;;5.20;54.10;;;;;;5073384;28;20190;-64
2022/03/15 00:43:07;;;;;;;13.32;8.00;;;5.20;54.10;;;;;;5073905;28;20637;-63
2022/03/15 00:45:34;;;;;;;13.73;8.30;;;5.20;54.60;;;;;;5063925;28;20190;-63
2022/03/15 00:48:01;;;;;;;9.10;5.90;;;5.20;54.60;;;;;;5055286;28;20280;-63
2022/03/15 00:50:32;;;;;;;11.32;7.18;;;5.20;54.90;;;;;;5064480;28;20193;-63
2022/03/15 00:53:00;;;;;;;9.10;7.55;;;5.10;55.40;;;;;;5075161;28;20221;-63
2022/03/15 00:55:27;;;;;;;10.32;7.13;;;5.10;55.60;;;;;;5065847;28;20190;-63
2022/03/15 00:57:54;;;;;;;9.75;6.65;;;5.00;55.80;;;;;;5055151;28;20195;-63
2022/03/15 01:00:22;;;;;;;10.57;7.30;;;5.10;55.70;;;;;;5062337;28;20240;-63
2022/03/15 01:02:49;;;;;;;9.43;7.28;;;5.10;55.90;;;;;;5075051;28;20200;-63
2022/03/15 01:05:17;;;;;;;10.65;7.47;;;5.20;55.90;;;;;;5063767;28;20212;-63
2022/03/15 01:07:47;;;;;;;9.90;7.57;;;5.10;55.60;;;;;;5055078;28;20194;-63
2022/03/15 01:10:14;;;;;;;11.30;7.07;;;5.10;56.40;;;;;;5055996;28;20182;-64
2022/03/15 01:12:41;;;;;;;11.80;7.80;;;5.00;55.70;;;;;;5054817;28;20600;-63
2022/03/15 01:15:09;;;;;;;11.18;7.50;;;5.00;55.40;;;;;;5065118;28;20213;-63
2022/03/15 01:17:36;;;;;;;12.52;7.78;;;5.00;55.40;;;;;;5074794;28;20198;-63
2022/03/15 01:20:05;;;;;;;8.70;6.10;;;5.00;56.60;;;;;;5059461;28;20192;-63
2022/03/15 01:22:32;;;;;;;14.68;9.20;;;4.90;57.20;;;;;;5054655;28;20194;-63
2022/03/15 01:25:00;;;;;;;13.55;8.52;;;4.90;57.00;;;;;;5067937;28;20652;-63
2022/03/15 01:27:27;;;;;;;9.27;6.15;;;4.90;56.90;;;;;;5074125;28;20197;-63
2022/03/15 01:29:56;;;;;;;15.40;7.88;;;4.90;56.40;;;;;;5061584;28;20656;-63
2022/03/15 01:32:23;;;;;;;14.43;7.13;;;4.80;56.10;;;;;;5054005;28;20222;-63
2022/03/15 01:34:50;;;;;;;9.15;5.82;;;4.70;56.80;;;;;;5064609;28;20186;-63
2022/03/15 01:37:17;;;;;;;9.20;6.65;;;4.70;57.30;;;;;;5066550;28;20186;-63
2022/03/15 01:39:44;;;;;;;10.70;7.07;;;4.60;57.20;;;;;;5054219;28;20645;-63
2022/03/15 01:42:13;;;;;;;11.27;6.75;;;4.60;57.90;;;;;;5059723;28;20182;-65
2022/03/15 01:44:46;;;;;;;6.97;5.00;;;4.60;58.40;;;;;;5074520;28;20190;-63
2022/03/15 01:47:13;;;;;;;8.63;5.25;;;4.70;58.20;;;;;;5068616;28;20240;-63
2022/03/15 01:49:40;;;;;;;7.03;4.95;;;4.70;58.10;;;;;;5054355;28;20190;-63
2022/03/15 01:52:12;;;;;;;10.23;5.20;;;4.80;58.20;;;;;;5057811;28;20301;-63
2022/03/15 01:54:41;;;;;;;6.18;4.35;;;4.80;57.80;;;;;;5074040;28;20281;-64
2022/03/15 01:57:08;;;;;;;7.85;4.65;;;4.80;58.00;;;;;;5070384;28;20197;-63
2022/03/15 01:59:37;;;;;;;7.47;4.93;;;4.80;58.30;;;;;;5054215;28;20277;-63
2022/03/15 02:02:05;;;;;;;6.88;4.50;;;4.80;58.50;;;;;;5055395;28;20191;-62
2022/03/15 02:04:34;;;;;;;8.80;6.43;;;4.80;58.40;;;;;;5074312;28;21295;-63
2022/03/15 02:07:03;;;;;;;10.18;5.60;;;4.80;58.60;;;;;;5062028;28;20282;-63
2022/03/15 02:09:30;;;;;;;7.57;4.60;;;4.80;58.90;;;;;;5053884;28;20194;-63
2022/03/15 02:11:58;;;;;;;7.47;4.85;;;4.80;58.90;;;;;;5063911;28;20217;-63
2022/03/15 02:14:25;;;;;;;10.65;6.65;;;4.90;58.50;;;;;;5073752;28;20197;-63
2022/03/15 02:16:54;;;;;;;8.38;5.07;;;4.90;58.20;;;;;;5064265;28;20236;-63
2022/03/15 02:19:21;;;;;;;6.43;4.80;;;4.90;58.60;;;;;;5053301;28;20186;-63
2022/03/15 02:21:50;;;;;;;6.22;4.90;;;4.90;58.50;;;;;;5061137;28;20190;-63
2022/03/15 02:24:18;;;;;;;6.93;5.28;;;4.90;58.20;;;;;;5073511;28;20668;-63
2022/03/15 02:26:45;;;;;;;9.75;5.13;;;4.90;58.30;;;;;;5066457;28;20194;-63
2022/03/15 02:29:13;;;;;;;6.05;4.30;;;5.00;58.20;;;;;;5053292;28;20679;-63
2022/03/15 02:31:40;;;;;;;7.80;5.30;;;5.00;57.70;;;;;;5058582;28;20185;-63
2022/03/15 02:34:07;;;;;;;7.25;4.53;;;5.00;57.60;;;;;;5073456;28;20397;-63
2022/03/15 02:36:34;;;;;;;7.70;5.28;;;5.10;57.30;;;;;;5069083;28;20198;-63
2022/03/15 02:39:03;;;;;;;8.70;4.47;;;5.10;57.40;;;;;;5053232;28;20555;-63
2022/03/15 02:41:30;;;;;;;6.20;4.43;;;5.00;57.00;;;;;;5055415;28;20194;-65
2022/03/15 02:43:57;;;;;;;6.00;4.55;;;5.00;57.10;;;;;;5073014;28;20217;-63
2022/03/15 02:46:30;;;;;;;6.50;4.60;;;5.00;57.20;;;;;;5071782;28;20247;-64
2022/03/15 02:48:57;;;;;;;6.45;3.95;;;4.90;56.80;;;;;;5053286;28;20611;-62
2022/03/15 02:51:25;;;;;;;8.10;4.97;;;4.90;56.50;;;;;;5052753;28;20724;-63
2022/03/15 02:53:53;;;;;;;9.10;4.50;;;4.80;56.60;;;;;;5071062;28;20213;-63
2022/03/15 02:56:22;;;;;;;10.35;5.35;;;4.80;56.80;;;;;;5072703;28;20284;-63
2022/03/15 02:58:49;;;;;;;7.88;5.80;;;4.70;57.50;;;;;;5053180;28;20198;-63
2022/03/15 03:01:16;;;;;;;6.53;5.03;;;4.70;57.50;;;;;;5052726;28;20226;-63
2022/03/15 03:03:44;;;;;;;8.52;4.90;;;4.70;57.50;;;;;;5070513;28;20298;-63
2022/03/15 03:06:11;;;;;;;9.32;5.30;;;4.70;57.50;;;;;;5072722;28;20197;-63
2022/03/15 03:08:38;;;;;;;6.90;4.60;;;4.80;57.60;;;;;;5055695;28;20676;-64
2022/03/15 03:11:05;;;;;;;5.40;3.92;;;4.80;57.50;;;;;;5052870;28;20222;-63
2022/03/15 03:13:37;;;;;;;10.45;4.80;;;4.80;57.10;;;;;;5067638;28;20220;-62
2022/03/15 03:16:07;;;;;;;6.60;4.28;;;4.80;57.20;;;;;;5072933;28;20557;-63
2022/03/15 03:18:35;;;;;;;8.73;4.90;;;4.70;56.40;;;;;;5056861;28;20195;-63
2022/03/15 03:21:04;;;;;;;9.50;5.40;;;4.70;56.70;;;;;;5053386;28;20201;-63
2022/03/15 03:23:34;;;;;;;7.45;4.68;;;4.70;57.60;;;;;;5066244;28;20194;-63
2022/03/15 03:26:01;;;;;;;9.05;5.53;;;4.70;57.70;;;;;;5072222;28;20722;-63
2022/03/15 03:28:36;;;;;;;8.07;5.05;;;4.70;57.70;;;;;;5058711;28;20191;-63
2022/03/15 03:31:05;;;;;;;7.18;5.13;;;4.70;57.70;;;;;;5052417;28;20201;-63
2022/03/15 03:33:33;;;;;;;7.95;5.55;;;4.70;58.10;;;;;;5065130;28;20287;-63
2022/03/15 03:36:00;;;;;;;8.02;5.70;;;4.70;57.90;;;;;;5072251;28;20200;-63
2022/03/15 03:38:28;;;;;;;8.15;5.50;;;4.60;57.20;;;;;;5063159;28;20244;-63
2022/03/15 03:40:56;;;;;;;8.55;5.95;;;4.60;57.80;;;;;;5051791;28;20186;-63
2022/03/15 03:43:23;;;;;;;12.25;6.72;;;4.60;57.50;;;;;;5052333;28;20195;-63
2022/03/15 03:45:50;;;;;;;12.52;8.40;;;4.50;58.00;;;;;;5052300;28;20601;-63
2022/03/15 03:48:19;;;;;;;11.63;7.28;;;4.50;57.90;;;;;;5051910;28;20190;-63
2022/03/15 03:50:46;;;;;;;10.55;6.75;;;4.30;58.30;;;;;;5060537;28;20182;-63
2022/03/15 03:53:13;;;;;;;7.38;5.82;;;4.30;58.60;;;;;;5072117;28;20214;-62
2022/03/15 03:55:40;;;;;;;8.48;5.97;;;4.30;58.90;;;;;;5064401;28;20183;-63
2022/03/15 03:58:08;;;;;;;8.70;5.50;;;4.40;59.00;;;;;;5051691;28;20221;-64
2022/03/15 04:00:35;;;;;;;7.65;5.20;;;4.40;58.90;;;;;;5057496;28;20185;-63
2022/03/15 04:03:02;;;;;;;10.52;5.63;;;4.40;59.00;;;;;;5070568;28;20231;-63
2022/03/15 04:05:32;;;;;;;8.05;4.75;;;4.50;59.10;;;;;;5067524;28;20269;-63
2022/03/15 04:08:00;;;;;;;11.73;5.70;;;4.60;59.40;;;;;;5052180;28;20200;-63
2022/03/15 04:10:28;;;;;;;7.32;5.10;;;4.50;59.00;;;;;;5054833;28;20186;-62
2022/03/15 04:12:55;;;;;;;19.42;4.97;;;4.60;59.10;;;;;;5072303;28;20275;-64
2022/03/15 04:15:23;;;;;;;11.65;6.40;;;4.60;59.00;;;;;;5069386;28;20193;-63
2022/03/15 04:17:50;;;;;;;9.60;6.25;;;4.60;59.00;;;;;;5052137;28;20556;-64
2022/03/15 04:20:18;;;;;;;11.00;7.60;;;4.50;59.20;;;;;;5052800;28;20289;-63
2022/03/15 04:22:47;;;;;;;14.15;8.32;;;4.50;59.60;;;;;;5072399;28;20197;-63
2022/03/15 04:25:15;;;;;;;16.05;9.13;;;4.50;59.90;;;;;;5071480;28;20644;-64
2022/03/15 04:27:42;;;;;;;9.00;6.95;;;4.50;60.10;;;;;;5032204;28;20285;-64
2022/03/15 04:30:10;;;;;;;12.32;8.68;;;4.50;60.30;;;;;;5060508;28;20197;-66
2022/03/15 04:32:37;;;;;;;13.23;7.00;;;4.60;60.10;;;;;;5071685;28;20696;-63
2022/03/15 04:35:05;;;;;;;11.93;6.60;;;4.60;59.90;;;;;;5058761;28;20193;-63
2022/03/15 04:37:32;;;;;;;9.02;5.63;;;4.60;60.70;;;;;;5051924;28;20277;-65
2022/03/15 04:40:00;;;;;;;13.38;7.38;;;4.70;60.60;;;;;;5063258;28;20243;-64
2022/03/15 04:42:28;;;;;;;12.20;7.25;;;4.70;60.40;;;;;;5071920;28;20229;-63
2022/03/15 04:44:55;;;;;;;13.93;8.25;;;4.70;60.60;;;;;;5060768;28;20179;-63
2022/03/15 04:47:22;;;;;;;10.07;6.43;;;4.70;60.60;;;;;;5051835;28;20649;-63
2022/03/15 04:49:49;;;;;;;10.43;5.63;;;4.70;60.60;;;;;;5060625;28;20262;-64
2022/03/15 04:52:17;;;;;;;11.38;7.13;;;4.70;61.50;;;;;;5071858;28;20198;-64
2022/03/15 04:54:44;;;;;;;10.63;6.28;;;4.70;61.80;;;;;;5063521;28;20238;-64
2022/03/15 04:57:12;;;;;;;9.32;6.20;;;4.80;62.00;;;;;;5051675;28;20191;-63
2022/03/15 04:59:39;;;;;;;8.30;5.15;;;4.90;62.40;;;;;;5071769;28;20190;-64
2022/03/15 05:02:06;;;;;;;14.10;7.43;;;4.90;62.50;;;;;;5071867;28;20223;-64
2022/03/15 05:04:34;;;;;;;9.32;5.72;;;4.90;61.80;;;;;;5071472;28;20197;-64
2022/03/15 05:07:01;;;;;;;7.10;5.10;;;4.90;62.20;;;;;;5071848;28;20197;-64
2022/03/15 05:09:28;;;;;;;11.52;5.03;;;4.90;61.70;;;;;;5052935;28;20194;-63
2022/03/15 05:11:54;;;;;;;13.40;6.03;;;5.00;61.80;;;;;;5055235;28;20201;-63
2022/03/15 05:14:23;;;;;;;7.95;5.05;;;5.00;62.00;;;;;;5071733;28;20213;-63
2022/03/15 05:16:50;;;;;;;11.77;5.65;;;5.10;62.20;;;;;;5074924;28;20652;-63
2022/03/15 05:19:17;;;;;;;7.05;5.38;;;5.10;61.80;;;;;;5059160;28;20186;-63
2022/03/15 05:21:44;;;;;;;11.35;6.72;;;5.20;61.30;;;;;;5057869;28;20267;-64
2022/03/15 05:24:11;;;;;;;9.80;5.93;;;5.20;61.40;;;;;;5075062;28;20244;-64
2022/03/15 05:26:38;;;;;;;9.20;6.40;;;5.20;61.50;;;;;;5073014;28;20193;-63
2022/03/15 05:29:07;;;;;;;8.70;6.10;;;5.30;61.60;;;;;;5055046;28;20588;-63
2022/03/15 05:31:36;;;;;;;9.25;6.50;;;5.30;61.00;;;;;;5054987;28;20194;-64
2022/03/15 05:34:03;;;;;;;8.85;6.18;;;5.40;60.80;;;;;;5074690;28;20252;-63
2022/03/15 05:36:30;;;;;;;8.90;5.75;;;5.40;60.30;;;;;;5069447;28;20191;-63
2022/03/15 05:38:57;;;;;;;8.50;5.38;;;5.40;60.90;;;;;;5054908;28;20213;-64
2022/03/15 05:41:24;;;;;;;8.30;5.88;;;5.50;60.60;;;;;;5057930;28;20259;-63
2022/03/15 05:43:51;;;;;;;9.50;5.60;;;5.50;60.80;;;;;;5074124;28;20276;-64
2022/03/15 05:46:18;;;;;;;7.85;5.60;;;5.60;60.90;;;;;;5035252;28;20222;-64
2022/03/15 05:48:47;;;;;;;7.55;5.50;;;5.70;60.60;;;;;;5034402;28;20190;-64
2022/03/15 05:51:14;;;;;;;11.35;5.32;;;5.70;60.60;;;;;;5071334;28;20197;-64
2022/03/15 05:53:41;;;;;;;6.05;4.78;;;5.70;60.10;;;;;;5074298;28;20221;-63
2022/03/15 05:56:08;;;;;;;10.20;5.82;;;5.80;60.30;;;;;;5057847;28;20189;-64
2022/03/15 05:58:35;;;;;;;7.63;4.65;;;5.80;60.30;;;;;;5054260;28;20198;-63
2022/03/15 06:01:02;;;;;;;8.43;4.90;;;5.70;61.00;;;;;;5069629;28;20185;-63
2022/03/15 06:03:29;;;;;;;6.70;5.85;;;5.80;60.90;;;;;;5074180;28;20255;-63
2022/03/15 06:05:57;;;;;;;7.80;6.07;;;5.80;60.60;;;;;;5059577;28;20190;-64
2022/03/15 06:08:25;;;;;;;8.57;6.38;;;5.80;60.70;;;;;;5054142;28;20597;-63
2022/03/15 06:10:52;;;;;;;7.85;5.53;;;5.80;61.30;;;;;;5057449;28;20187;-63
2022/03/15 06:13:22;;;;;;;7.57;5.45;;;5.80;61.60;;;;;;5051884;28;20296;-64
2022/03/15 06:15:49;;;;;;;9.43;6.90;;;5.80;61.60;;;;;;5052508;28;20228;-63
2022/03/15 06:18:16;;;;;;;9.68;7.05;;;5.90;61.10;;;;;;5052099;28;20201;-63
2022/03/15 06:20:44;;;;;;;9.38;5.82;;;5.90;61.10;;;;;;5051890;28;20649;-64
2022/03/15 06:23:12;;;;;;;7.63;6.05;;;5.90;61.50;;;;;;5055558;28;20551;-63
2022/03/15 06:25:39;;;;;;;12.05;6.05;;;6.00;61.70;;;;;;5051706;28;20710;-64
2022/03/15 06:28:06;;;;;;;11.38;7.40;;;6.00;61.60;;;;;;5052435;28;20186;-63
2022/03/15 06:30:33;;;;;;;10.20;6.32;;;6.00;61.40;;;;;;5052173;28;20584;-63
2022/03/15 06:33:01;;;;;;;10.38;5.97;;;6.10;61.70;;;;;;5047476;28;20222;-63
2022/03/15 06:35:28;;;;;;;9.00;6.45;;;6.10;61.70;;;;;;5051887;28;20194;-63
2022/03/15 06:37:56;;;;;;;10.95;6.47;;;6.20;61.90;;;;;;5051886;28;20216;-63
2022/03/15 06:40:25;;;;;;;10.20;6.30;;;6.30;62.10;;;;;;5051406;28;20548;-63
2022/03/15 06:42:52;;;;;;;10.00;7.82;;;6.40;61.40;;;;;;5051036;28;20213;-64
2022/03/15 06:45:20;;;;;;;10.48;6.60;;;6.30;60.50;;;;;;5051640;28;20190;-63
2022/03/15 06:47:47;;;;;;;12.32;6.80;;;6.40;60.50;;;;;;5051757;28;20198;-64
2022/03/15 06:50:15;;;;;;;11.77;6.97;;;6.40;60.90;;;;;;5051508;28;20194;-63
2022/03/15 06:52:42;;;;;;;8.20;6.50;;;6.50;61.10;;;;;;5051899;28;20187;-64
2022/03/15 06:55:11;;;;;;;11.55;7.53;;;6.60;60.90;;;;;;5051429;28;20251;-64
2022/03/15 06:57:40;;;;;;;11.57;8.40;;;6.70;60.60;;;;;;5052335;28;20600;-64
2022/03/15 07:00:10;;;;;;;11.25;7.60;;;6.80;60.40;;;;;;5047735;28;20190;-63
2022/03/15 07:02:37;;;;;;;10.80;6.25;;;6.90;60.60;;;;;;5051827;28;20190;-63
2022/03/15 07:05:05;;;;;;;9.77;6.97;;;7.00;61.30;;;;;;5051489;28;20312;-64
2022/03/15 07:07:32;;;;;;;9.43;6.97;;;7.10;61.50;;;;;;5053872;28;20649;-64
2022/03/15 07:09:59;;;;;;;12.00;8.80;;;7.30;61.30;;;;;;5050652;28;20194;-64
2022/03/15 07:12:28;;;;;;;14.32;8.73;;;7.50;60.90;;;;;;5051010;28;20194;-63
2022/03/15 07:15:00;;;;;;;13.30;8.60;;;7.60;60.50;;;;;;5051149;28;20226;-64
2022/03/15 07:17:27;;;;;;;19.15;10.55;;;7.70;59.20;;;;;;5047588;28;20555;-64
2022/03/15 07:19:54;;;;;;;12.77;8.60;;;7.80;59.00;;;;;;5053049;28;20186;-63
2022/03/15 07:22:21;;;;;;;14.98;9.45;;;7.80;59.00;;;;;;5051657;28;20190;-65
2022/03/15 07:24:48;;;;;;;19.30;8.50;;;7.80;59.00;;;;;;5055213;28;20194;-64
2022/03/15 07:27:15;;;;;;;9.95;8.15;;;7.90;59.60;;;;;;5051822;28;20282;-64
2022/03/15 07:29:42;;;;;;;14.88;8.68;;;8.00;59.00;;;;;;5051386;28;20201;-65
2022/03/15 07:32:11;;;;;;;14.50;8.82;;;8.00;59.00;;;;;;5054189;28;20191;-64
2022/03/15 07:34:38;;;;;;;13.90;8.68;;;8.10;59.00;;;;;;5046617;28;20218;-64
2022/03/15 07:37:05;;;;;;;9.57;6.70;;;8.10;58.70;;;;;;5051376;28;20707;-64
2022/03/15 07:39:32;;;;;;;9.15;7.38;;;8.20;58.50;;;;;;5053046;28;20199;-64
2022/03/15 07:41:59;;;;;;;10.50;6.35;;;8.20;58.20;;;;;;5051037;28;20641;-64
2022/03/15 07:44:26;;;;;;;9.07;6.85;;;8.20;58.10;;;;;;5047079;28;20190;-63
2022/03/15 07:46:53;;;;;;;8.13;6.75;;;8.30;58.00;;;;;;5058362;28;20222;-63
2022/03/15 07:49:22;;;;;;;9.65;7.78;;;8.30;58.70;;;;;;5049961;28;20649;-64
2022/03/15 07:54:35;;;;;;;11.50;7.63;;;8.30;58.80;;;;;;5055688;28;20224;-64
2022/03/15 07:57:02;;;;;;;12.90;8.50;;;8.30;59.50;;;;;;5052810;28;20202;-64
2022/03/15 07:59:30;;;;;;;9.90;7.88;;;8.50;60.10;;;;;;5049143;28;20198;-64
2022/03/15 08:01:58;;;;;;;11.60;8.48;;;8.60;60.30;;;;;;5050630;28;20735;-64
2022/03/15 08:04:26;;;;;;;16.77;8.18;;;8.60;60.50;;;;;;5050403;28;20190;-64
2022/03/15 08:06:54;;;;;;;11.40;8.70;;;8.70;60.90;;;;;;5052040;28;20556;-63
2022/03/15 08:09:22;;;;;;;14.20;9.82;;;8.80;60.90;;;;;;5049279;28;20209;-64
2022/03/15 08:11:49;;;;;;;14.15;9.15;;;8.90;60.50;;;;;;5050756;28;20284;-64
2022/03/15 08:14:16;;;;;;;12.85;10.10;;;8.80;59.60;;;;;;5049891;28;20244;-64
2022/03/15 08:16:43;;;;;;;16.13;10.32;;;8.70;60.10;;;;;;5053847;28;20209;-64
2022/03/15 08:19:12;;;;;;;13.35;9.75;;;8.70;60.40;;;;;;5050559;28;20202;-64
2022/03/15 08:21:40;;;;;;;11.48;8.07;;;8.80;60.40;;;;;;5050720;28;20526;-63
2022/03/15 08:24:07;;;;;;;14.65;7.60;;;8.90;60.30;;;;;;5050130;28;20202;-64
2022/03/15 08:26:34;;;;;;;10.30;7.68;;;9.10;59.90;;;;;;5051425;28;20190;-63
2022/03/15 08:29:01;;;;;;;8.20;6.50;;;9.20;59.70;;;;;;5051868;28;20194;-64
2022/03/15 08:31:28;;;;;;;8.48;6.45;;;9.30;59.60;;;;;;5050386;28;20194;-65
2022/03/15 08:33:55;;;;;;;6.57;5.38;;;9.40;59.30;;;;;;5051462;28;20229;-64
2022/03/15 08:36:22;;;;;;;8.82;5.63;;;9.50;58.80;;;;;;5050557;28;20194;-64
2022/03/15 08:38:51;;;;;;;7.00;5.68;;;9.60;58.30;;;;;;5047762;28;20228;-64
2022/03/15 08:41:18;;;;;;;7.78;5.10;;;9.60;58.10;;;;;;5050392;28;20277;-65
2022/03/15 08:43:46;;;;;;;8.90;5.85;;;9.60;58.20;;;;;;5047014;28;20236;-64
2022/03/15 08:46:13;;;;;;;7.65;5.50;;;9.70;58.40;;;;;;5054667;28;20268;-64
2022/03/15 08:48:40;;;;;;;8.73;5.68;;;9.80;57.60;;;;;;5054703;28;20506;-64
2022/03/15 08:51:07;;;;;;;8.13;5.70;;;9.90;57.30;;;;;;5053576;28;20673;-64
2022/03/15 08:53:34;;;;;;;8.65;6.07;;;10.00;56.80;;;;;;5051821;28;20182;-63
2022/03/15 08:56:03;;;;;;;9.27;5.70;;;10.00;56.40;;;;;;5055010;28;20222;-65
2022/03/15 08:58:30;;;;;;;12.40;5.80;;;10.10;56.50;;;;;;5053551;28;20198;-63
2022/03/15 09:00:58;;;;;;;10.63;6.03;;;10.10;56.70;;;;;;5053913;28;20199;-64
2022/03/15 09:03:26;;;;;;;7.55;5.70;;;10.10;56.80;;;;;;5053479;28;20604;-64
2022/03/15 09:05:53;;;;;;;9.52;5.72;;;10.10;57.00;;;;;;5053634;28;20193;-68
2022/03/15 09:08:20;;;;;;;8.52;5.75;;;10.10;56.70;;;;;;5054815;28;20264;-65
2022/03/15 09:10:48;;;;;;;13.90;5.93;;;10.20;57.00;;;;;;5050898;28;20178;-68
2022/03/15 09:13:16;;;;;;;11.70;6.95;;;10.30;56.80;;;;;;5047892;28;20247;-64
2022/03/15 09:15:43;;;;;;;8.55;6.60;;;10.40;57.20;;;;;;5053822;28;20218;-64
2022/03/15 09:18:10;;;;;;;7.82;5.10;;;10.50;57.30;;;;;;5055301;28;20264;-65
2022/03/15 09:20:38;;;;;;;9.90;5.72;;;10.60;57.00;;;;;;5054324;28;20240;-64
2022/03/15 09:23:06;;;;;;;8.25;6.57;;;10.70;56.80;;;;;;5053306;28;20307;-64
2022/03/15 09:25:34;;;;;;;13.00;6.50;;;10.70;56.50;;;;;;5053940;28;20603;-64
2022/03/15 09:28:01;;;;;;;8.55;6.70;;;10.80;56.50;;;;;;5053073;28;20193;-64
2022/03/15 09:30:30;;;;;;;16.92;7.10;;;10.90;56.50;;;;;;5053804;28;20194;-65
2022/03/15 09:32:58;;;;;;;8.68;6.45;;;11.00;56.80;;;;;;5053036;28;20246;-64
2022/03/15 09:35:25;;;;;;;9.50;5.40;;;11.10;56.80;;;;;;5055244;28;20526;-66
2022/03/15 09:37:52;;;;;;;7.20;5.40;;;11.20;56.90;;;;;;5052793;28;20214;-63
2022/03/15 09:40:23;;;;;;;11.05;6.60;;;11.30;56.30;;;;;;5053816;28;20552;-64
2022/03/15 09:42:52;;;;;;;17.40;7.70;;;11.40;55.70;;;;;;5053209;28;20872;-64
2022/03/15 09:45:23;;;;;;;13.00;6.65;;;11.50;55.40;;;;;;5052946;28;20611;-64
2022/03/15 09:47:57;;;;;;;11.02;6.57;;;11.50;54.90;;;;;;5052816;28;20260;-64
2022/03/15 09:50:25;;;;;;;11.30;6.45;;;11.60;54.80;;;;;;5052632;28;20260;-64
2022/03/15 09:52:54;;;;;;;8.90;5.75;;;11.70;54.50;;;;;;5048256;28;20187;-64
2022/03/15 09:55:21;;;;;;;8.13;6.43;;;11.70;53.70;;;;;;5051985;28;20230;-64
2022/03/15 09:57:48;;;;;;;8.35;6.03;;;11.70;53.50;;;;;;5052467;28;20193;-64
2022/03/15 10:00:17;;;;;;;7.65;5.10;;;11.70;53.30;;;;;;5052429;28;20198;-64
2022/03/15 10:02:44;;;;;;;20.00;6.65;;;11.80;53.20;;;;;;5052321;28;20693;-65
2022/03/15 10:05:14;;;;;;;9.18;6.60;;;11.80;52.80;;;;;;5052566;28;20550;-65
2022/03/15 10:07:41;;;;;;;8.45;6.25;;;11.80;53.00;;;;;;5052597;28;20204;-65
2022/03/15 10:10:12;;;;;;;11.00;6.10;;;11.80;53.20;;;;;;5048339;28;20645;-64
2022/03/15 10:12:39;;;;;;;8.65;6.40;;;11.90;53.60;;;;;;5052491;28;20297;-69
2022/03/15 10:15:16;;;;;;;8.23;6.22;;;11.90;53.70;;;;;;5052213;28;20287;-64
2022/03/15 10:17:47;;;;;;;10.63;6.45;;;12.00;53.50;;;;;;5055171;28;20186;-64
2022/03/15 10:20:18;;;;;;;10.15;6.15;;;12.00;53.30;;;;;;5052510;28;20198;-68
2022/03/15 10:22:53;;;;;;;13.50;8.63;;;12.10;52.70;;;;;;5051933;28;20187;-64
2022/03/15 10:25:22;;;;;;;13.82;8.70;;;12.00;52.90;;;;;;5052165;28;20983;-64
2022/03/15 10:27:52;;;;;;;12.20;7.68;;;12.10;53.10;;;;;;5052663;28;20196;-66
2022/03/15 10:30:19;;;;;;;12.60;6.30;;;12.10;53.20;;;;;;5049402;28;20244;-63
2022/03/15 10:32:47;;;;;;;14.68;7.38;;;12.10;52.80;;;;;;5051808;28;20233;-64
2022/03/15 10:35:17;;;;;;;23.65;8.55;;;12.10;52.50;;;;;;5051756;28;20218;-65
2022/03/15 10:37:46;;;;;;;12.60;6.43;;;12.20;52.60;;;;;;5051917;28;20190;-64
2022/03/15 10:40:13;;;;;;;10.40;6.90;;;12.20;52.70;;;;;;5051867;28;20194;-64
2022/03/15 10:42:42;;;;;;;10.07;6.70;;;12.10;52.80;;;;;;5051749;28;20286;-64
2022/03/15 10:45:20;;;;;;;9.68;6.78;;;12.20;53.00;;;;;;5051474;28;20194;-65
2022/03/15 10:47:54;;;;;;;8.23;5.68;;;12.20;52.70;;;;;;5051628;28;20194;-65
2022/03/15 10:50:23;;;;;;;9.50;6.18;;;12.20;52.70;;;;;;5051367;28;20525;-64
2022/03/15 10:52:53;;;;;;;8.57;6.05;;;12.20;52.50;;;;;;5051615;28;20641;-64
2022/03/15 10:55:24;;;;;;;8.18;7.00;;;12.20;52.90;;;;;;5053962;28;20232;-64
2022/03/15 10:57:54;;;;;;;9.75;6.45;;;12.20;53.50;;;;;;5050182;28;20213;-64
2022/03/15 11:00:23;;;;;;;7.65;6.00;;;12.20;53.60;;;;;;5054515;28;20203;-64
2022/03/15 11:02:52;;;;;;;10.95;6.07;;;12.20;53.80;;;;;;5048442;28;20600;-64
2022/03/15 11:05:30;;;;;;;11.55;5.70;;;12.20;54.40;;;;;;5050457;28;20194;-65
2022/03/15 11:08:04;;;;;;;16.73;6.82;;;12.20;55.20;;;;;;5050985;28;20580;-64
2022/03/15 11:10:31;;;;;;;27.48;14.52;;;12.20;55.10;;;;;;5050923;28;20197;-65
2022/03/15 11:13:02;;;;;;;10.65;8.05;;;12.20;54.90;;;;;;5051337;28;20553;-64
2022/03/15 11:15:31;;;;;;;11.50;6.97;;;12.10;55.10;;;;;;5048823;28;20772;-65
2022/03/15 11:18:00;;;;;;;16.13;7.82;;;12.10;55.40;;;;;;5050917;28;20608;-65
2022/03/15 11:20:29;;;;;;;18.80;7.75;;;12.10;55.50;;;;;;5054262;28;20279;-65
2022/03/15 11:23:05;;;;;;;11.60;8.23;;;12.20;55.90;;;;;;5050961;28;20188;-64
2022/03/15 11:25:37;;;;;;;9.63;6.90;;;12.20;56.40;;;;;;5050410;28;20277;-64
2022/03/15 11:28:06;;;;;;;11.13;8.15;;;12.30;56.60;;;;;;5053428;28;20186;-64
2022/03/15 11:30:34;;;;;;;20.42;7.57;;;12.40;56.60;;;;;;5050678;28;20330;-64
2022/03/15 11:33:06;;;;;;;12.50;7.93;;;12.50;56.70;;;;;;5049839;28;20280;-64
2022/03/15 11:35:35;;;;;;;16.23;8.52;;;12.60;56.40;;;;;;5047516;28;20624;-64
2022/03/15 11:38:08;;;;;;;16.02;11.07;;;12.60;56.70;;;;;;5052037;28;20217;-64
2022/03/15 11:40:35;;;;;;;18.75;10.75;;;12.70;56.20;;;;;;5050612;28;20293;-65
2022/03/15 11:43:15;;;;;;;13.57;10.27;;;12.70;56.00;;;;;;5050655;28;20205;-64
2022/03/15 11:45:45;;;;;;;13.30;9.40;;;12.80;56.90;;;;;;5050117;28;20194;-65
2022/03/15 11:48:17;;;;;;;15.25;9.40;;;12.80;57.40;;;;;;5050919;28;20187;-64
2022/03/15 11:50:56;;;;;;;9.43;7.70;;;12.80;56.70;;;;;;5051480;28;20191;-64
2022/03/15 11:53:36;;;;;;;10.70;7.20;;;12.80;56.60;;;;;;5051091;28;20597;-64
2022/03/15 11:56:15;;;;;;;8.50;6.65;;;12.80;57.10;;;;;;5050883;28;20666;-64
2022/03/15 11:58:52;;;;;;;10.05;7.28;;;12.70;56.90;;;;;;5048837;28;20279;-64
2022/03/15 12:01:21;;;;;;;10.90;7.97;;;12.80;57.30;;;;;;5052039;28;20182;-64
2022/03/15 12:03:51;;;;;;;10.60;7.50;;;12.80;57.80;;;;;;5047960;28;20190;-64
2022/03/15 12:06:20;;;;;;;12.48;7.65;;;12.70;58.00;;;;;;5049883;28;20278;-65
2022/03/15 12:08:59;;;;;;;13.27;8.75;;;12.70;58.70;;;;;;5050496;28;20194;-64
2022/03/15 12:11:28;;;;;;;14.90;7.93;;;12.80;59.80;;;;;;5049893;28;20182;-64
2022/03/15 12:14:08;;;;;;;13.02;8.95;;;12.70;59.80;;;;;;5050428;28;20650;-67
2022/03/15 12:16:41;;;;;;;12.30;8.82;;;12.60;63.10;;;;;;5051036;28;20237;-64
2022/03/15 12:19:23;;;;;;;14.82;8.95;;;12.50;64.90;;;;;;5050304;28;20316;-65
2022/03/15 12:21:54;;;;;;;12.15;6.82;;;12.50;64.20;;;;;;5054240;28;20273;-64
2022/03/15 12:24:31;;;;;;;10.77;7.65;;;12.40;64.80;;;;;;5054258;28;20198;-64
2022/03/15 12:27:01;;;;;;;8.43;7.05;;;12.40;66.50;;;;;;5057935;28;20187;-64
2022/03/15 12:29:29;;;;;;;8.55;5.85;;;12.30;66.70;;;;;;5054154;28;20202;-66
2022/03/15 12:31:57;;;;;;;9.95;5.88;;;12.30;67.80;;;;;;5054333;28;20251;-64
2022/03/15 12:34:26;;;;;;;18.58;8.13;;;12.30;67.50;;;;;;5054185;28;20240;-64
2022/03/15 12:36:58;;;;;;;8.02;5.97;;;12.30;67.50;;;;;;5053619;28;20218;-66
2022/03/15 12:39:29;;;;;;;10.95;6.55;;;12.30;66.00;;;;;;5050025;28;20187;-64
2022/03/15 12:42:10;;;;;;;8.00;5.55;;;12.40;65.20;;;;;;5053897;28;20178;-64
2022/03/15 12:44:44;;;;;;;15.43;5.75;;;12.50;65.00;;;;;;5054552;28;20194;-64
2022/03/15 12:47:11;;;;;;;11.13;6.30;;;12.50;64.30;;;;;;5050784;28;20253;-69
2022/03/15 12:49:39;;;;;;;9.43;5.78;;;12.60;63.80;;;;;;5055914;28;20187;-64
2022/03/15 12:52:13;;;;;;;5.85;5.20;;;12.70;64.70;;;;;;5055611;28;20193;-64
2022/03/15 12:54:45;;;;;;;6.13;5.13;;;12.70;64.40;;;;;;5056666;28;20193;-66
2022/03/15 12:57:14;;;;;;;9.88;5.32;;;12.70;63.60;;;;;;5056936;28;20236;-64